createdAt,value
2022-12-08T00:01:10.316Z,93.84
2022-12-08T00:03:37.712Z,94.05
2022-12-08T00:06:24.442Z,94.21
2022-12-08T00:09:10.306Z,93.80
2022-12-08T00:11:37.200Z,93.91
2022-12-08T00:14:03.632Z,94.10
2022-12-08T00:16:30.143Z,94.11
2022-12-08T00:18:56.574Z,94.15
2022-12-08T00:21:22.904Z,94.25
2022-12-08T00:23:49.308Z,94.16
2022-12-08T00:26:15.707Z,94.18
2022-12-08T00:28:42.164Z,94.35
2022-12-08T00:31:10.301Z,94.59
2022-12-08T00:33:36.869Z,94.13
2022-12-08T00:36:11.938Z,94.11
2022-12-08T00:38:39.700Z,94.27
2022-12-08T00:41:13.534Z,94.43
2022-12-08T00:43:39.992Z,94.58
2022-12-08T00:46:06.511Z,94.77
2022-12-08T00:48:33.030Z,94.56
2022-12-08T00:50:59.382Z,95.32
2022-12-08T00:53:25.751Z,94.85
2022-12-08T00:55:52.089Z,94.59
2022-12-08T00:58:18.463Z,94.93
2022-12-08T01:00:44.895Z,95.26
2022-12-08T01:03:12.587Z,94.89
2022-12-08T01:05:39.656Z,94.75
2022-12-08T01:08:07.248Z,95.00
2022-12-08T01:10:38.353Z,95.24
2022-12-08T01:13:05.176Z,95.05
2022-12-08T01:15:31.550Z,94.85
2022-12-08T01:17:57.962Z,94.86
2022-12-08T01:20:24.430Z,94.79
2022-12-08T01:22:50.851Z,95.17
2022-12-08T01:25:17.437Z,94.63
2022-12-08T01:27:43.811Z,95.10
2022-12-08T01:30:10.623Z,95.10
2022-12-08T01:32:36.982Z,94.63
2022-12-08T01:35:03.541Z,95.25
2022-12-08T01:37:29.974Z,95.19
2022-12-08T01:39:56.309Z,94.90
2022-12-08T01:42:23.418Z,94.93
2022-12-08T01:44:54.908Z,94.90
2022-12-08T01:47:24.327Z,95.21
2022-12-08T01:49:50.988Z,95.14
2022-12-08T01:52:29.062Z,95.33
2022-12-08T01:55:05.271Z,95.42
2022-12-08T01:57:36.053Z,95.65
2022-12-08T02:00:08.833Z,95.27
2022-12-08T02:02:52.517Z,95.37
2022-12-08T02:05:22.546Z,95.20
2022-12-08T02:07:49.999Z,95.04
2022-12-08T02:10:20.939Z,94.96
2022-12-08T02:12:50.540Z,95.37
2022-12-08T02:15:18.463Z,94.92
2022-12-08T02:17:56.967Z,95.15
2022-12-08T02:20:37.781Z,95.28
2022-12-08T02:23:23.593Z,95.27
2022-12-08T02:26:19.405Z,95.08
2022-12-08T02:29:04.091Z,95.16
2022-12-08T02:32:07.803Z,95.06
2022-12-08T02:34:49.500Z,95.33
2022-12-08T02:37:40.811Z,95.03
2022-12-08T02:40:13.252Z,95.39
2022-12-08T02:42:58.634Z,95.59
2022-12-08T02:45:41.579Z,95.31
2022-12-08T02:48:09.138Z,95.92
2022-12-08T02:50:35.612Z,95.46
2022-12-08T02:53:03.860Z,95.58
2022-12-08T02:56:00.363Z,95.15
2022-12-08T02:58:50.308Z,95.43
2022-12-08T03:01:28.201Z,95.96
2022-12-08T03:04:20.836Z,95.49
2022-12-08T03:07:06.167Z,95.82
2022-12-08T03:09:46.732Z,95.44
2022-12-08T03:12:31.219Z,95.84
2022-12-08T03:15:02.269Z,96.27
2022-12-08T03:17:31.055Z,96.23
2022-12-08T03:20:02.222Z,96.12
2022-12-08T03:22:29.171Z,96.25
2022-12-08T03:24:56.887Z,95.72
2022-12-08T03:27:29.426Z,95.75
2022-12-08T03:29:57.858Z,95.89
2022-12-08T03:32:35.167Z,96.41
2022-12-08T03:35:05.682Z,96.16
2022-12-08T03:37:35.626Z,96.00
2022-12-08T03:40:03.793Z,95.73
2022-12-08T03:42:30.358Z,96.08
2022-12-08T03:44:56.838Z,96.46
2022-12-08T03:47:23.267Z,96.29
2022-12-08T03:49:49.659Z,95.93
2022-12-08T03:52:16.091Z,95.62
2022-12-08T03:54:42.535Z,95.75
2022-12-08T03:57:08.929Z,96.05
2022-12-08T03:59:35.287Z,96.42
2022-12-08T04:02:01.673Z,95.78
2022-12-08T04:04:28.026Z,95.91
2022-12-08T04:06:54.424Z,95.63
2022-12-08T04:09:20.775Z,95.30
2022-12-08T04:11:47.154Z,95.78
2022-12-08T04:14:13.593Z,95.69
2022-12-08T04:16:40.057Z,95.31
2022-12-08T04:19:06.651Z,95.27
2022-12-08T04:21:33.296Z,95.85
2022-12-08T04:24:01.544Z,95.74
2022-12-08T04:26:28.206Z,95.30
2022-12-08T04:28:54.643Z,95.55
2022-12-08T04:31:21.135Z,95.60
2022-12-08T04:33:48.612Z,95.42
2022-12-08T04:36:15.126Z,95.82
2022-12-08T04:38:41.528Z,95.65
2022-12-08T04:41:07.979Z,95.89
2022-12-08T04:43:35.641Z,95.56
2022-12-08T04:46:02.017Z,95.74
2022-12-08T04:48:28.398Z,95.88
2022-12-08T04:50:54.844Z,95.56
2022-12-08T04:53:21.330Z,95.57
2022-12-08T04:55:49.636Z,95.56
2022-12-08T04:58:18.434Z,95.58
2022-12-08T05:00:46.368Z,95.37
2022-12-08T05:03:13.717Z,96.02
2022-12-08T05:05:41.454Z,95.87
2022-12-08T05:08:09.283Z,95.71
2022-12-08T05:10:36.191Z,95.81
2022-12-08T05:13:02.582Z,96.05
2022-12-08T05:15:28.913Z,95.61
2022-12-08T05:17:55.300Z,96.20
2022-12-08T05:20:21.961Z,95.56
2022-12-08T05:22:48.308Z,95.97
2022-12-08T05:25:14.986Z,95.88
2022-12-08T05:27:41.985Z,96.03
2022-12-08T05:30:08.690Z,95.63
2022-12-08T05:32:35.011Z,95.83
2022-12-08T05:35:01.379Z,95.72
2022-12-08T05:37:27.766Z,95.62
2022-12-08T05:39:54.217Z,95.64
2022-12-08T05:42:24.570Z,95.22
2022-12-08T05:44:51.499Z,95.76
2022-12-08T05:47:17.837Z,95.55
2022-12-08T05:49:44.862Z,95.68
2022-12-08T05:52:11.267Z,95.81
2022-12-08T05:54:38.079Z,95.75
2022-12-08T05:57:04.479Z,95.45
2022-12-08T05:59:30.929Z,96.25
2022-12-08T06:01:57.358Z,95.57
2022-12-08T06:04:23.726Z,95.59
2022-12-08T06:06:50.182Z,95.74
2022-12-08T06:09:16.594Z,95.82
2022-12-08T06:11:43.023Z,96.02
2022-12-08T06:14:13.327Z,95.80
2022-12-08T06:16:40.001Z,95.85
2022-12-08T06:19:06.492Z,96.03
2022-12-08T06:21:32.931Z,96.29
2022-12-08T06:23:59.363Z,96.07
2022-12-08T06:26:25.738Z,96.32
2022-12-08T06:28:52.317Z,96.00
2022-12-08T06:31:22.152Z,96.33
2022-12-08T06:33:49.281Z,96.23
2022-12-08T06:36:18.634Z,96.04
2022-12-08T06:38:45.043Z,96.13
2022-12-08T06:41:12.481Z,96.06
2022-12-08T06:43:39.467Z,96.16
2022-12-08T06:46:08.400Z,95.88
2022-12-08T06:48:34.882Z,95.70
2022-12-08T06:51:09.646Z,95.99
2022-12-08T06:53:36.038Z,95.63
2022-12-08T06:56:02.467Z,95.87
2022-12-08T06:58:28.936Z,95.99
2022-12-08T07:00:55.512Z,95.54
2022-12-08T07:03:21.945Z,95.64
2022-12-08T07:05:48.620Z,96.44
2022-12-08T07:08:15.074Z,95.97
2022-12-08T07:10:41.601Z,96.23
2022-12-08T07:13:07.972Z,95.82
2022-12-08T07:15:34.384Z,96.06
2022-12-08T07:18:00.937Z,95.59
2022-12-08T07:20:27.912Z,96.41
2022-12-08T07:22:54.599Z,96.05
2022-12-08T07:25:21.236Z,95.88
2022-12-08T07:27:48.153Z,95.53
2022-12-08T07:30:14.950Z,95.89
2022-12-08T07:32:41.375Z,95.63
2022-12-08T07:35:08.798Z,95.90
2022-12-08T07:37:37.352Z,95.97
2022-12-08T07:40:05.727Z,95.83
2022-12-08T07:42:32.673Z,96.06
2022-12-08T07:44:59.404Z,96.17
2022-12-08T07:47:25.751Z,96.07
2022-12-08T07:49:52.116Z,95.85
2022-12-08T07:52:18.536Z,96.15
2022-12-08T07:54:44.910Z,96.23
2022-12-08T07:57:11.372Z,95.59
2022-12-08T07:59:37.739Z,96.17
2022-12-08T08:02:22.694Z,95.77
2022-12-08T08:04:51.005Z,95.91
2022-12-08T08:07:17.557Z,96.04
2022-12-08T08:09:43.993Z,95.89
2022-12-08T08:12:30.175Z,96.15
2022-12-08T08:14:56.779Z,95.95
2022-12-08T08:17:23.223Z,95.85
2022-12-08T08:19:49.728Z,95.76
2022-12-08T08:22:16.122Z,95.73
2022-12-08T08:24:45.073Z,96.30
2022-12-08T08:27:12.185Z,96.20
2022-12-08T08:29:38.635Z,96.24
2022-12-08T08:32:05.573Z,95.94
2022-12-08T08:34:31.895Z,96.05
2022-12-08T08:36:58.389Z,95.93
2022-12-08T08:39:24.866Z,95.92
2022-12-08T08:41:51.227Z,96.13
2022-12-08T08:44:17.659Z,96.08
2022-12-08T08:46:44.225Z,96.11
2022-12-08T08:49:10.604Z,96.23
2022-12-08T08:51:36.952Z,96.36
2022-12-08T08:54:03.307Z,95.87
2022-12-08T08:56:30.480Z,95.93
2022-12-08T08:58:57.038Z,96.11
2022-12-08T09:01:26.858Z,96.35
2022-12-08T09:03:54.403Z,95.54
2022-12-08T09:06:22.043Z,95.74
2022-12-08T09:08:48.811Z,96.00
2022-12-08T09:11:15.900Z,95.96
2022-12-08T09:13:42.344Z,95.73
2022-12-08T09:16:09.592Z,95.87
2022-12-08T09:18:35.999Z,95.82
2022-12-08T09:21:10.223Z,95.92
2022-12-08T09:23:37.100Z,95.87
2022-12-08T09:26:05.033Z,95.99
2022-12-08T09:28:32.142Z,95.90
2022-12-08T09:30:58.653Z,95.99
2022-12-08T09:33:25.254Z,95.92
2022-12-08T09:35:51.618Z,95.42
2022-12-08T09:38:18.364Z,95.78
2022-12-08T09:40:52.991Z,95.53
2022-12-08T09:43:25.247Z,95.26
2022-12-08T09:45:52.382Z,95.84
2022-12-08T09:48:23.217Z,95.99
2022-12-08T09:50:57.241Z,95.91
2022-12-08T09:53:35.891Z,95.76
2022-12-08T09:56:08.967Z,95.79
2022-12-08T09:58:53.705Z,95.89
2022-12-08T10:01:27.472Z,95.70
2022-12-08T10:03:55.933Z,95.34
2022-12-08T10:06:38.454Z,95.30
2022-12-08T10:09:22.949Z,95.34
2022-12-08T10:12:04.780Z,95.75
2022-12-08T10:14:41.192Z,95.96
2022-12-08T10:17:24.187Z,95.56
2022-12-08T10:19:57.547Z,95.55
2022-12-08T10:22:26.735Z,95.79
2022-12-08T10:25:01.138Z,95.55
2022-12-08T10:27:27.977Z,95.33
2022-12-08T10:29:54.363Z,95.46
2022-12-08T10:32:24.258Z,95.11
2022-12-08T10:35:08.908Z,94.83
2022-12-08T10:37:36.068Z,95.24
2022-12-08T10:40:08.936Z,94.62
2022-12-08T10:42:39.693Z,95.47
2022-12-08T10:45:09.160Z,94.78
2022-12-08T10:47:38.244Z,95.11
2022-12-08T10:50:44.393Z,94.90
2022-12-08T10:53:25.127Z,94.68
2022-12-08T10:56:05.203Z,95.30
2022-12-08T10:58:36.039Z,94.98
2022-12-08T11:01:11.918Z,95.19
2022-12-08T11:03:58.276Z,94.94
2022-12-08T11:06:34.343Z,94.88
2022-12-08T11:09:04.572Z,95.33
2022-12-08T11:12:06.018Z,94.52
2022-12-08T11:14:46.195Z,95.37
2022-12-08T11:17:15.876Z,94.55
2022-12-08T11:19:45.330Z,94.84
2022-12-08T11:22:37.444Z,95.00
2022-12-08T11:25:21.473Z,94.61
2022-12-08T11:27:50.511Z,94.71
2022-12-08T11:30:19.734Z,94.84
2022-12-08T11:32:50.851Z,94.34
2022-12-08T11:35:34.514Z,94.68
2022-12-08T11:38:22.674Z,94.07
2022-12-08T11:41:03.307Z,94.28
2022-12-08T11:43:48.272Z,93.78
2022-12-08T11:46:21.242Z,94.06
2022-12-08T11:49:02.736Z,93.87
2022-12-08T11:51:37.297Z,94.36
2022-12-08T11:54:11.359Z,94.39
2022-12-08T11:56:46.865Z,94.08
2022-12-08T11:59:29.398Z,93.63
2022-12-08T12:02:01.965Z,93.98
2022-12-08T12:04:37.423Z,94.08
2022-12-08T12:07:24.588Z,93.72
2022-12-08T12:10:12.648Z,93.64
2022-12-08T12:13:00.690Z,93.93
2022-12-08T12:15:51.321Z,93.83
2022-12-08T12:18:41.040Z,93.42
2022-12-08T12:21:18.358Z,93.25
2022-12-08T12:23:57.196Z,93.25
2022-12-08T12:26:31.087Z,93.63
2022-12-08T12:28:57.436Z,93.13
2022-12-08T12:31:47.251Z,93.39
2022-12-08T12:34:30.432Z,93.50
2022-12-08T12:37:12.918Z,93.21
2022-12-08T12:40:00.139Z,92.91
2022-12-08T12:42:40.710Z,92.59
2022-12-08T12:45:29.815Z,92.19
2022-12-08T12:47:57.092Z,92.63
2022-12-08T12:50:41.572Z,92.31
2022-12-08T12:53:17.271Z,92.01
2022-12-08T12:55:56.013Z,92.19
2022-12-08T12:58:28.469Z,91.97
2022-12-08T13:01:10.056Z,91.23
2022-12-08T13:03:42.558Z,91.95
2022-12-08T13:06:14.820Z,91.69
2022-12-08T13:08:50.954Z,91.58
2022-12-08T13:11:17.822Z,92.14
2022-12-08T13:13:59.098Z,91.62
2022-12-08T13:16:27.817Z,91.44
2022-12-08T13:19:05.527Z,92.01
2022-12-08T13:21:35.783Z,91.71
2022-12-08T13:24:14.158Z,92.21
2022-12-08T13:26:48.928Z,91.77
2022-12-08T13:29:26.013Z,92.14
2022-12-08T13:31:52.365Z,92.10
2022-12-08T13:34:34.024Z,91.81
2022-12-08T13:37:13.496Z,91.81
2022-12-08T13:39:39.856Z,91.81
2022-12-08T13:42:06.283Z,91.49
2022-12-08T13:48:20.464Z,91.51
2022-12-08T13:59:34.684Z,91.81
2022-12-08T14:02:14.906Z,91.91
2022-12-08T14:05:16.982Z,91.87
2022-12-08T14:07:33.658Z,91.85
2022-12-08T14:10:03.466Z,92.29
2022-12-08T14:12:31.453Z,91.87
2022-12-08T14:15:06.504Z,92.17
2022-12-08T14:17:33.589Z,91.39
2022-12-08T14:20:19.851Z,91.44
2022-12-08T14:22:46.825Z,91.47
2022-12-08T14:25:15.843Z,91.81
2022-12-08T14:27:43.279Z,91.63
2022-12-08T14:30:18.321Z,91.43
2022-12-08T14:32:48.905Z,91.57
2022-12-08T14:35:30.051Z,92.01
2022-12-08T14:38:12.118Z,91.87
2022-12-08T14:40:39.754Z,91.60
2022-12-08T14:43:20.371Z,91.59
2022-12-08T14:45:48.003Z,91.62
2022-12-08T14:48:39.506Z,91.58
2022-12-08T14:51:11.687Z,91.41
2022-12-08T14:53:41.441Z,91.85
2022-12-08T14:56:20.188Z,91.70
2022-12-08T14:58:49.054Z,91.94
2022-12-08T15:01:21.581Z,92.00
2022-12-08T15:03:51.149Z,92.05
2022-12-08T15:06:22.009Z,92.42
2022-12-08T15:08:55.286Z,92.34
2022-12-08T15:11:21.710Z,91.84
2022-12-08T15:13:51.115Z,92.19
2022-12-08T15:16:36.019Z,92.31
2022-12-08T15:19:16.457Z,92.89
2022-12-08T15:21:45.735Z,92.61
2022-12-08T15:24:14.131Z,92.52
2022-12-08T15:26:48.978Z,92.43
2022-12-08T15:29:27.456Z,93.02
2022-12-08T15:31:59.386Z,92.89
2022-12-08T15:34:25.983Z,93.50
2022-12-08T15:36:54.701Z,92.88
2022-12-08T15:39:36.059Z,93.29
2022-12-08T15:42:04.732Z,93.40
2022-12-08T15:44:32.555Z,93.34
2022-12-08T15:46:59.882Z,93.91
2022-12-08T15:49:26.870Z,93.55
2022-12-08T15:52:01.969Z,93.54
2022-12-08T15:54:36.879Z,93.65
2022-12-08T15:57:18.989Z,93.57
2022-12-08T15:59:45.972Z,93.91
2022-12-08T16:02:17.933Z,93.37
2022-12-08T16:05:33.377Z,93.74
2022-12-08T16:07:37.951Z,93.57
2022-12-08T16:10:06.496Z,93.81
2022-12-08T16:15:58.520Z,93.81
2022-12-08T16:18:29.857Z,93.28
2022-12-08T16:23:44.548Z,93.05
2022-12-08T16:26:28.482Z,92.97
2022-12-08T16:29:01.882Z,93.20
2022-12-08T16:31:28.286Z,93.36
2022-12-08T16:33:54.682Z,93.14
2022-12-08T16:36:21.012Z,93.73
2022-12-08T16:38:47.382Z,93.46
2022-12-08T16:41:33.695Z,93.46
2022-12-08T16:44:06.013Z,93.40
2022-12-08T16:46:32.670Z,93.37
2022-12-08T16:48:59.172Z,93.73
2022-12-08T16:51:27.204Z,93.53
2022-12-08T16:53:58.319Z,93.53
2022-12-08T16:56:31.912Z,94.16
2022-12-08T16:58:59.441Z,93.93
2022-12-08T17:01:25.957Z,94.00
2022-12-08T17:04:22.522Z,93.67
2022-12-08T17:06:38.820Z,93.90
2022-12-08T17:09:05.337Z,94.19
2022-12-08T17:11:37.449Z,94.15
2022-12-08T17:14:09.047Z,93.79
2022-12-08T17:16:35.410Z,93.94
2022-12-08T17:19:01.815Z,94.01
2022-12-08T17:21:28.241Z,93.78
2022-12-08T17:23:54.739Z,94.46
2022-12-08T17:26:21.085Z,93.93
2022-12-08T17:29:02.758Z,94.11
2022-12-08T17:31:31.776Z,94.13
2022-12-08T17:34:03.257Z,93.87
2022-12-08T17:36:29.850Z,93.67
2022-12-08T17:38:58.500Z,94.18
2022-12-08T17:41:24.828Z,94.29
2022-12-08T17:43:51.215Z,93.91
2022-12-08T17:46:21.334Z,94.11
2022-12-08T17:48:48.095Z,93.95
2022-12-08T17:51:15.292Z,94.33
2022-12-08T17:53:41.755Z,93.71
2022-12-08T17:56:17.384Z,93.92
2022-12-08T17:58:43.877Z,94.12
2022-12-08T18:01:11.661Z,94.15
2022-12-08T18:03:38.847Z,94.19
2022-12-08T18:06:11.365Z,94.38
2022-12-08T18:08:38.240Z,94.49
2022-12-08T18:11:05.808Z,94.42
2022-12-08T18:13:32.149Z,94.45
2022-12-08T18:15:58.560Z,94.03
2022-12-08T18:18:25.013Z,94.12
2022-12-08T18:20:51.461Z,94.55
2022-12-08T18:23:18.592Z,94.45
2022-12-08T18:25:45.191Z,94.30
2022-12-08T18:28:11.618Z,94.19
2022-12-08T18:30:39.556Z,94.33
2022-12-08T18:33:07.576Z,94.25
2022-12-08T18:35:34.133Z,94.69
2022-12-08T18:38:00.530Z,94.36
2022-12-08T18:40:27.982Z,94.69
2022-12-08T18:42:54.645Z,94.25
2022-12-08T18:45:22.679Z,94.53
2022-12-08T18:47:50.963Z,94.30
2022-12-08T18:50:17.863Z,94.43
2022-12-08T18:52:45.695Z,94.54
2022-12-08T18:55:12.652Z,94.36
2022-12-08T18:57:42.332Z,94.71
2022-12-08T19:00:12.208Z,94.56
2022-12-08T19:02:39.762Z,94.30
2022-12-08T19:05:07.757Z,94.79
2022-12-08T19:07:34.588Z,94.59
2022-12-08T19:10:01.003Z,94.87
2022-12-08T19:12:27.461Z,94.64
2022-12-08T19:14:53.967Z,94.61
2022-12-08T19:17:21.067Z,94.50
2022-12-08T19:19:47.621Z,95.23
2022-12-08T19:22:14.186Z,94.59
2022-12-08T19:24:40.628Z,94.92
2022-12-08T19:27:07.227Z,95.46
2022-12-08T19:29:33.761Z,95.33
2022-12-08T19:32:00.388Z,95.12
2022-12-08T19:34:26.838Z,95.46
2022-12-08T19:36:53.275Z,95.14
2022-12-08T19:39:40.729Z,95.10
2022-12-08T19:42:33.842Z,95.29
2022-12-08T19:45:05.843Z,95.65
2022-12-08T19:47:32.321Z,95.31
2022-12-08T19:50:17.358Z,95.48
2022-12-08T19:52:44.805Z,95.51
2022-12-08T19:55:11.796Z,95.47
2022-12-08T19:57:38.414Z,95.57
2022-12-08T20:00:07.208Z,95.86
2022-12-08T20:02:33.761Z,95.72
2022-12-08T20:05:00.323Z,95.30
2022-12-08T20:07:26.785Z,95.86
2022-12-08T20:09:53.219Z,95.61
2022-12-08T20:12:19.574Z,95.44
2022-12-08T20:14:46.405Z,95.76
2022-12-08T20:17:12.998Z,95.49
2022-12-08T20:19:39.460Z,95.78
2022-12-08T20:22:05.894Z,95.25
2022-12-08T20:24:32.251Z,95.38
2022-12-08T20:26:58.698Z,95.28
2022-12-08T20:29:25.074Z,95.56
2022-12-08T20:31:51.568Z,95.33
2022-12-08T20:34:19.226Z,95.31
2022-12-08T20:36:46.195Z,95.63
2022-12-08T20:39:14.190Z,95.50
2022-12-08T20:41:41.927Z,94.95
2022-12-08T20:44:08.838Z,95.16
2022-12-08T20:46:35.344Z,95.27
2022-12-08T20:49:03.940Z,95.38
2022-12-08T20:51:32.299Z,95.20
2022-12-08T20:53:59.260Z,95.50
2022-12-08T20:56:26.761Z,95.22
2022-12-08T20:58:53.922Z,94.85
2022-12-08T21:01:22.697Z,94.60
2022-12-08T21:03:49.910Z,95.09
2022-12-08T21:06:16.636Z,95.06
2022-12-08T21:08:43.098Z,95.16
2022-12-08T21:11:10.098Z,94.68
2022-12-08T21:13:37.315Z,94.97
2022-12-08T21:16:04.918Z,94.97
2022-12-08T21:18:39.015Z,94.85
2022-12-08T21:21:13.992Z,94.84
2022-12-08T21:23:42.398Z,94.64
2022-12-08T21:26:13.426Z,94.54
2022-12-08T21:28:40.060Z,94.49
2022-12-08T21:31:11.741Z,94.48
2022-12-08T21:33:38.853Z,94.65
2022-12-08T21:36:09.449Z,94.65
2022-12-08T21:38:37.504Z,94.94
2022-12-08T21:41:13.300Z,94.67
2022-12-08T21:43:40.102Z,94.39
2022-12-08T21:46:06.669Z,94.29
2022-12-08T21:48:33.363Z,94.48
2022-12-08T21:51:04.880Z,94.73
2022-12-08T21:53:31.414Z,94.25
2022-12-08T21:55:57.802Z,94.41
2022-12-08T21:58:24.224Z,94.43
2022-12-08T22:00:50.730Z,94.47
2022-12-08T22:03:17.435Z,94.21
2022-12-08T22:05:44.062Z,94.23
2022-12-08T22:08:10.716Z,94.22
2022-12-08T22:10:38.348Z,94.18
2022-12-08T22:13:04.965Z,94.42
2022-12-08T22:15:32.638Z,94.15
2022-12-08T22:17:59.215Z,93.96
2022-12-08T22:20:25.719Z,94.64
2022-12-08T22:22:52.049Z,94.27
2022-12-08T22:25:18.461Z,94.03
2022-12-08T22:27:44.843Z,94.25
2022-12-08T22:30:12.131Z,93.85
2022-12-08T22:32:38.902Z,93.95
2022-12-08T22:35:05.852Z,94.18
2022-12-08T22:37:32.309Z,93.74
2022-12-08T22:39:58.709Z,93.66
2022-12-08T22:42:25.144Z,93.95
2022-12-08T22:44:51.488Z,94.21
2022-12-08T22:47:17.838Z,93.83
2022-12-08T22:49:44.167Z,93.96
2022-12-08T22:52:10.570Z,94.37
2022-12-08T22:54:36.921Z,93.72
2022-12-08T22:57:03.693Z,93.98
2022-12-08T22:59:30.431Z,94.12
2022-12-08T23:01:56.893Z,93.61
2022-12-08T23:04:23.464Z,93.88
2022-12-08T23:06:50.303Z,94.10
2022-12-08T23:09:17.056Z,94.05
2022-12-08T23:11:44.168Z,94.24
2022-12-08T23:14:10.723Z,93.92
2022-12-08T23:16:37.634Z,94.05
2022-12-08T23:19:04.213Z,94.06
2022-12-08T23:21:30.767Z,93.83
2022-12-08T23:23:57.264Z,93.56
2022-12-08T23:26:26.837Z,94.17
2022-12-08T23:28:54.149Z,93.64
2022-12-08T23:31:20.974Z,93.95
2022-12-08T23:33:48.120Z,93.60
2022-12-08T23:36:16.581Z,93.83
2022-12-08T23:38:43.805Z,93.82
2022-12-08T23:41:12.577Z,94.15
2022-12-08T23:43:44.320Z,93.74
2022-12-08T23:46:11.006Z,93.84
2022-12-08T23:48:37.465Z,93.77
2022-12-08T23:51:03.900Z,93.68
2022-12-08T23:53:31.549Z,93.93
2022-12-08T23:56:00.349Z,93.43
2022-12-08T23:58:26.961Z,93.60
